createdAt,value
2018-06-20T00:00:52.851Z,11.10
2018-06-20T00:03:21.050Z,10.20
2018-06-20T00:05:49.267Z,11.03
2018-06-20T00:08:17.459Z,10.77
2018-06-20T00:10:45.663Z,10.27
2018-06-20T00:13:13.884Z,10.43
2018-06-20T00:15:42.095Z,10.30
2018-06-20T00:18:10.323Z,9.70
2018-06-20T00:20:38.534Z,10.60
2018-06-20T00:23:06.746Z,10.27
2018-06-20T00:25:34.943Z,11.13
2018-06-20T00:28:03.138Z,10.63
2018-06-20T00:30:31.330Z,9.60
2018-06-20T00:32:59.526Z,9.63
2018-06-20T00:35:27.751Z,10.20
2018-06-20T00:37:55.943Z,10.80
2018-06-20T00:40:24.146Z,10.50
2018-06-20T00:42:52.351Z,11.53
2018-06-20T00:45:20.546Z,10.60
2018-06-20T00:47:48.771Z,9.10
2018-06-20T00:50:16.983Z,10.57
2018-06-20T00:52:45.175Z,10.50
2018-06-20T00:55:13.383Z,11.00
2018-06-20T00:57:41.571Z,10.47
2018-06-20T01:00:09.810Z,10.80
2018-06-20T01:02:38.011Z,10.60
2018-06-20T01:05:06.331Z,9.73
2018-06-20T01:07:34.551Z,10.20
2018-06-20T01:10:02.774Z,10.77
2018-06-20T01:12:31.006Z,11.13
2018-06-20T01:14:59.265Z,10.00
2018-06-20T01:17:27.427Z,10.97
2018-06-20T01:19:55.630Z,10.10
2018-06-20T01:22:23.829Z,10.30
2018-06-20T01:24:52.026Z,11.10
2018-06-20T01:27:20.248Z,11.20
2018-06-20T01:29:48.447Z,10.60
2018-06-20T01:32:16.677Z,9.47
2018-06-20T01:34:44.886Z,10.27
2018-06-20T01:37:13.087Z,9.10
2018-06-20T01:39:41.288Z,9.50
2018-06-20T01:42:09.490Z,9.90
2018-06-20T01:44:37.691Z,9.80
2018-06-20T01:47:05.898Z,10.03
2018-06-20T01:49:34.093Z,9.67
2018-06-20T01:52:02.294Z,9.87
2018-06-20T01:54:30.494Z,9.80
2018-06-20T01:56:58.709Z,10.07
2018-06-20T01:59:26.898Z,9.60
2018-06-20T02:01:55.103Z,9.63
2018-06-20T02:04:23.322Z,9.40
2018-06-20T02:06:51.533Z,9.53
2018-06-20T02:09:19.723Z,9.90
2018-06-20T02:11:47.923Z,9.30
2018-06-20T02:14:16.158Z,10.20
2018-06-20T02:16:44.353Z,10.10
2018-06-20T02:19:12.552Z,9.80
2018-06-20T02:21:40.755Z,10.50
2018-06-20T02:24:08.950Z,9.47
2018-06-20T02:26:37.179Z,9.10
2018-06-20T02:29:05.422Z,10.60
2018-06-20T02:31:33.623Z,9.90
2018-06-20T02:34:01.811Z,9.83
2018-06-20T02:36:31.862Z,10.70
2018-06-20T02:39:00.334Z,9.77
2018-06-20T02:41:28.528Z,9.63
2018-06-20T02:43:56.746Z,10.13
2018-06-20T02:46:24.967Z,9.87
2018-06-20T02:48:53.179Z,10.50
2018-06-20T02:51:21.378Z,10.50
2018-06-20T02:53:49.567Z,10.20
2018-06-20T02:56:17.767Z,9.80
2018-06-20T02:58:45.979Z,9.63
2018-06-20T03:01:14.174Z,9.90
2018-06-20T03:03:42.362Z,10.20
2018-06-20T03:06:10.574Z,10.10
2018-06-20T03:08:38.766Z,9.97
2018-06-20T03:11:06.959Z,10.00
2018-06-20T03:13:35.176Z,10.00
2018-06-20T03:16:03.364Z,9.87
2018-06-20T03:18:31.594Z,9.57
2018-06-20T03:20:59.792Z,9.40
2018-06-20T03:23:28.012Z,9.50
2018-06-20T03:25:56.306Z,10.50
2018-06-20T03:28:24.490Z,9.80
2018-06-20T03:30:52.710Z,10.77
2018-06-20T03:33:20.915Z,10.77
2018-06-20T03:35:49.171Z,9.80
2018-06-20T03:38:17.363Z,10.27
2018-06-20T03:40:45.590Z,10.30
2018-06-20T03:43:13.790Z,10.63
2018-06-20T03:45:41.974Z,9.83
2018-06-20T03:48:10.218Z,9.57
2018-06-20T03:50:38.455Z,8.90
2018-06-20T03:53:06.659Z,9.40
2018-06-20T03:55:34.858Z,8.70
2018-06-20T03:58:03.071Z,9.77
2018-06-20T04:00:31.283Z,11.57
2018-06-20T04:02:59.526Z,9.70
2018-06-20T04:05:29.951Z,9.57
2018-06-20T04:07:58.731Z,9.80
2018-06-20T04:10:27.139Z,10.80
2018-06-20T04:12:55.330Z,10.47
2018-06-20T04:15:23.540Z,11.50
2018-06-20T04:17:51.742Z,11.73
2018-06-20T04:20:19.943Z,11.60
2018-06-20T04:22:48.174Z,12.37
2018-06-20T04:25:16.368Z,12.43
2018-06-20T04:27:44.571Z,11.90
2018-06-20T04:30:12.769Z,12.80
2018-06-20T04:32:40.988Z,11.10
2018-06-20T04:35:09.172Z,13.23
2018-06-20T04:37:37.386Z,13.03
2018-06-20T04:40:05.647Z,12.43
2018-06-20T04:42:33.895Z,12.10
2018-06-20T04:45:02.188Z,12.47
2018-06-20T04:47:30.382Z,12.10
2018-06-20T04:49:58.573Z,12.10
2018-06-20T04:52:26.785Z,12.13
2018-06-20T04:54:54.994Z,11.57
2018-06-20T04:57:23.203Z,11.03
2018-06-20T04:59:51.409Z,13.10
2018-06-20T05:02:19.687Z,11.13
2018-06-20T05:04:47.895Z,11.00
2018-06-20T05:07:16.103Z,13.00
2018-06-20T05:09:44.312Z,13.27
2018-06-20T05:12:12.516Z,12.90
2018-06-20T05:14:40.723Z,12.10
2018-06-20T05:17:08.950Z,11.13
2018-06-20T05:19:37.175Z,11.80
2018-06-20T05:22:05.366Z,12.43
2018-06-20T05:24:33.572Z,13.37
2018-06-20T05:27:01.777Z,12.60
2018-06-20T05:29:30.000Z,14.50
2018-06-20T05:31:58.207Z,13.00
2018-06-20T05:34:26.414Z,13.63
2018-06-20T05:36:54.624Z,14.57
2018-06-20T05:39:22.829Z,13.10
2018-06-20T05:41:51.171Z,13.57
2018-06-20T05:44:19.320Z,12.63
2018-06-20T05:46:47.546Z,12.70
2018-06-20T05:49:15.800Z,12.13
2018-06-20T05:51:44.002Z,13.30
2018-06-20T05:54:12.194Z,12.13
2018-06-20T05:56:40.382Z,14.57
2018-06-20T05:59:08.582Z,13.33
2018-06-20T06:01:36.795Z,13.90
2018-06-20T06:04:05.007Z,13.70
2018-06-20T06:06:33.206Z,12.57
2018-06-20T06:09:01.410Z,13.50
2018-06-20T06:11:29.611Z,14.30
2018-06-20T06:13:57.798Z,14.90
2018-06-20T06:16:26.016Z,13.40
2018-06-20T06:18:54.235Z,14.67
2018-06-20T06:21:22.453Z,13.80
2018-06-20T06:23:50.651Z,14.67
2018-06-20T06:26:18.854Z,16.03
2018-06-20T06:28:47.060Z,16.10
2018-06-20T06:31:15.288Z,15.30
2018-06-20T06:33:43.487Z,14.60
2018-06-20T06:36:11.670Z,15.30
2018-06-20T06:38:39.886Z,12.93
2018-06-20T06:41:08.087Z,13.80
2018-06-20T06:43:36.346Z,14.20
2018-06-20T06:46:04.702Z,13.60
2018-06-20T06:48:32.891Z,14.60
2018-06-20T06:51:01.155Z,15.00
2018-06-20T06:53:29.378Z,14.43
2018-06-20T06:55:57.622Z,13.70
2018-06-20T06:58:25.771Z,13.40
2018-06-20T07:00:54.025Z,13.20
2018-06-20T07:03:22.210Z,14.70
2018-06-20T07:05:50.416Z,15.40
2018-06-20T07:08:18.619Z,14.80
2018-06-20T07:10:46.826Z,15.70
2018-06-20T07:13:15.039Z,14.87
2018-06-20T07:15:43.230Z,14.90
2018-06-20T07:18:11.442Z,14.60
2018-06-20T07:20:39.673Z,16.50
2018-06-20T07:23:07.910Z,15.00
2018-06-20T07:25:36.123Z,17.10
2018-06-20T07:28:04.390Z,14.73
2018-06-20T07:30:32.595Z,17.20
2018-06-20T07:33:00.791Z,15.80
2018-06-20T07:35:29.048Z,16.40
2018-06-20T07:37:57.258Z,15.83
2018-06-20T07:40:25.452Z,15.80
2018-06-20T07:42:53.678Z,15.50
2018-06-20T07:45:21.871Z,15.33
2018-06-20T07:47:50.191Z,14.43
2018-06-20T07:50:18.304Z,13.53
2018-06-20T07:52:46.504Z,13.57
2018-06-20T07:55:14.711Z,15.10
2018-06-20T07:57:43.452Z,12.03
2018-06-20T08:00:16.923Z,12.80
2018-06-20T08:03:01.914Z,13.70
2018-06-20T08:05:35.510Z,11.50
2018-06-20T08:08:09.023Z,10.50
2018-06-20T08:10:42.563Z,11.90
2018-06-20T08:13:16.050Z,13.77
2018-06-20T08:15:49.683Z,10.00
2018-06-20T08:18:23.246Z,11.10
2018-06-20T08:20:51.496Z,11.17
2018-06-20T08:23:19.718Z,10.80
2018-06-20T08:25:48.136Z,11.50
2018-06-20T08:28:16.290Z,11.20
2018-06-20T08:30:44.494Z,9.70
2018-06-20T08:33:12.689Z,9.17
2018-06-20T08:35:40.878Z,11.00
2018-06-20T08:38:09.089Z,10.90
2018-06-20T08:40:37.355Z,10.27
2018-06-20T08:43:05.551Z,9.80
2018-06-20T08:45:33.742Z,9.57
2018-06-20T08:48:02.031Z,10.10
2018-06-20T08:50:30.255Z,9.77
2018-06-20T08:52:58.509Z,11.90
2018-06-20T08:55:26.821Z,12.13
2018-06-20T08:57:55.152Z,10.23
2018-06-20T09:00:28.610Z,9.10
2018-06-20T09:02:56.830Z,9.80
2018-06-20T09:05:30.319Z,8.53
2018-06-20T09:08:03.598Z,9.20
2018-06-20T09:10:37.102Z,9.00
2018-06-20T09:13:10.558Z,8.83
2018-06-20T09:15:44.211Z,8.27
2018-06-20T09:18:17.655Z,8.57
2018-06-20T09:20:45.864Z,7.90
2018-06-20T09:23:14.064Z,10.73
2018-06-20T09:25:42.347Z,7.07
2018-06-20T09:28:10.544Z,15.27
2018-06-20T09:30:38.766Z,9.53
2018-06-20T09:33:06.990Z,8.27
2018-06-20T09:35:35.247Z,8.20
2018-06-20T09:38:03.442Z,10.47
2018-06-20T09:40:31.759Z,8.67
2018-06-20T09:42:59.967Z,7.87
2018-06-20T09:45:28.165Z,6.37
2018-06-20T09:47:56.330Z,7.20
2018-06-20T09:50:29.778Z,8.07
2018-06-20T09:52:57.952Z,7.60
2018-06-20T09:55:26.150Z,8.27
2018-06-20T09:57:54.356Z,8.03
2018-06-20T10:00:27.946Z,7.87
2018-06-20T10:03:01.375Z,8.60
2018-06-20T10:05:35.043Z,8.10
2018-06-20T10:08:08.619Z,7.63
2018-06-20T10:10:42.219Z,8.00
2018-06-20T10:13:12.351Z,8.40
2018-06-20T10:15:40.512Z,7.80
2018-06-20T10:18:08.695Z,8.40
2018-06-20T10:20:36.882Z,9.50
2018-06-20T10:23:05.071Z,8.60
2018-06-20T10:25:33.270Z,8.90
2018-06-20T10:28:01.576Z,8.93
2018-06-20T10:30:29.765Z,9.43
2018-06-20T10:32:57.962Z,9.20
2018-06-20T10:35:26.148Z,8.03
2018-06-20T10:37:54.354Z,8.00
2018-06-20T10:40:22.574Z,8.60
2018-06-20T10:42:50.778Z,9.23
2018-06-20T10:45:24.306Z,8.73
2018-06-20T10:47:52.851Z,8.70
2018-06-20T10:50:21.050Z,7.70
2018-06-20T10:52:49.223Z,8.80
2018-06-20T10:55:18.147Z,9.00
2018-06-20T10:57:51.559Z,8.50
2018-06-20T11:00:25.118Z,8.63
2018-06-20T11:03:58.047Z,7.90
2018-06-20T11:06:31.415Z,8.80
2018-06-20T11:09:05.044Z,8.63
2018-06-20T11:11:38.659Z,9.33
2018-06-20T11:14:06.839Z,8.40
2018-06-20T11:16:35.052Z,7.60
2018-06-20T11:19:03.235Z,8.37
2018-06-20T11:21:31.455Z,7.67
2018-06-20T11:23:59.637Z,7.93
2018-06-20T11:26:27.818Z,8.80
2018-06-20T11:28:56.017Z,8.27
2018-06-20T11:31:24.186Z,7.80
2018-06-20T11:33:52.383Z,8.07
2018-06-20T11:36:20.563Z,8.77
2018-06-20T11:38:48.849Z,8.20
2018-06-20T11:41:17.026Z,7.63
2018-06-20T11:43:45.200Z,8.60
2018-06-20T11:46:18.800Z,8.10
2018-06-20T11:48:46.990Z,7.57
2018-06-20T11:51:15.190Z,8.50
2018-06-20T11:53:43.390Z,8.20
2018-06-20T11:56:11.582Z,7.90
2018-06-20T11:58:45.094Z,7.57
2018-06-20T12:01:18.695Z,7.80
2018-06-20T12:03:52.295Z,7.30
2018-06-20T12:06:25.863Z,7.50
2018-06-20T12:08:59.392Z,7.80
2018-06-20T12:11:32.943Z,7.93
2018-06-20T12:14:06.491Z,7.63
2018-06-20T12:16:36.247Z,8.33
2018-06-20T12:19:09.734Z,7.73
2018-06-20T12:21:43.282Z,7.80
2018-06-20T12:24:17.047Z,8.37
2018-06-20T12:26:50.472Z,8.13
2018-06-20T12:29:24.049Z,7.53
2018-06-20T12:31:57.631Z,7.63
2018-06-20T12:34:31.135Z,7.37
2018-06-20T12:37:04.735Z,8.60
2018-06-20T12:39:32.135Z,7.80
2018-06-20T12:42:05.823Z,7.40
2018-06-20T12:44:39.354Z,7.90
2018-06-20T12:47:12.335Z,7.53
2018-06-20T12:49:44.619Z,7.13
2018-06-20T12:52:15.234Z,7.33
2018-06-20T12:54:44.166Z,8.23
2018-06-20T12:57:12.391Z,7.20
2018-06-20T12:59:40.594Z,7.03
2018-06-20T13:02:08.775Z,8.27
2018-06-20T13:04:36.974Z,7.37
2018-06-20T13:07:05.217Z,8.20
2018-06-20T13:09:33.403Z,6.70
2018-06-20T13:12:01.574Z,7.70
2018-06-20T13:14:29.793Z,6.90
2018-06-20T13:16:57.978Z,7.80
2018-06-20T13:19:26.189Z,7.77
2018-06-20T13:21:54.363Z,7.73
2018-06-20T13:24:22.539Z,7.57
2018-06-20T13:26:50.805Z,7.53
2018-06-20T13:29:18.978Z,7.60
2018-06-20T13:31:52.586Z,7.67
2018-06-20T13:34:25.976Z,7.43
2018-06-20T13:36:59.535Z,7.23
2018-06-20T13:39:33.183Z,7.90
2018-06-20T13:42:04.480Z,7.20
2018-06-20T13:44:32.655Z,7.13
2018-06-20T13:47:06.250Z,7.13
2018-06-20T13:49:34.471Z,8.30
2018-06-20T13:52:03.762Z,6.83
2018-06-20T13:54:31.914Z,7.03
2018-06-20T13:57:00.090Z,7.00
2018-06-20T13:59:28.300Z,6.43
2018-06-20T14:01:56.487Z,6.93
2018-06-20T14:04:24.675Z,6.63
2018-06-20T14:06:52.862Z,7.10
2018-06-20T14:09:21.051Z,6.60
2018-06-20T14:11:49.238Z,7.23
2018-06-20T14:14:17.483Z,6.50
2018-06-20T14:16:45.742Z,6.60
2018-06-20T14:19:13.867Z,6.80
2018-06-20T14:21:42.714Z,6.27
2018-06-20T14:24:11.914Z,6.90
2018-06-20T14:26:41.247Z,6.83
2018-06-20T14:29:10.184Z,7.07
2018-06-20T14:31:43.715Z,7.13
2018-06-20T14:34:17.195Z,6.80
2018-06-20T14:36:50.725Z,7.20
2018-06-20T14:39:24.260Z,7.87
2018-06-20T14:41:57.890Z,7.03
2018-06-20T14:44:26.066Z,6.47
2018-06-20T14:46:54.266Z,6.87
2018-06-20T14:49:22.521Z,6.87
2018-06-20T14:51:50.719Z,6.80
2018-06-20T14:54:18.908Z,7.00
2018-06-20T14:56:47.104Z,6.40
2018-06-20T14:59:15.302Z,6.63
2018-06-20T15:01:43.480Z,6.90
2018-06-20T15:04:11.671Z,6.87
2018-06-20T15:06:39.875Z,6.67
2018-06-20T15:09:08.771Z,6.97
2018-06-20T15:11:37.417Z,6.70
2018-06-20T15:14:05.646Z,7.13
2018-06-20T15:16:39.361Z,6.63
2018-06-20T15:19:07.536Z,6.00
2018-06-20T15:21:35.786Z,6.87
2018-06-20T15:24:03.984Z,6.60
2018-06-20T15:27:36.044Z,6.73
2018-06-20T15:30:09.624Z,6.50
2018-06-20T15:32:43.174Z,6.37
2018-06-20T15:35:16.852Z,6.70
2018-06-20T15:37:50.338Z,6.97
2018-06-20T15:40:18.515Z,6.73
2018-06-20T15:42:46.732Z,5.87
2018-06-20T15:45:14.934Z,5.93
2018-06-20T15:47:43.129Z,5.40
2018-06-20T15:50:11.329Z,5.70
2018-06-20T15:52:39.501Z,5.30
2018-06-20T15:55:07.712Z,5.63
2018-06-20T15:57:35.942Z,5.80
2018-06-20T16:00:04.572Z,5.80
2018-06-20T16:02:32.762Z,5.17
2018-06-20T16:05:01.139Z,5.70
2018-06-20T16:07:29.391Z,5.30
2018-06-20T16:09:58.673Z,5.30
2018-06-20T16:12:27.440Z,5.53
2018-06-20T16:14:56.553Z,5.77
2018-06-20T16:17:24.790Z,5.50
2018-06-20T16:19:58.430Z,5.73
2018-06-20T16:22:32.095Z,6.07
2018-06-20T16:25:05.642Z,5.50
2018-06-20T16:28:40.335Z,5.40
2018-06-20T16:31:08.515Z,5.30
2018-06-20T16:33:36.738Z,5.60
2018-06-20T16:36:05.042Z,6.33
2018-06-20T16:38:33.325Z,6.53
2018-06-20T16:41:01.600Z,5.73
2018-06-20T16:43:29.935Z,5.77
2018-06-20T16:45:58.215Z,5.80
2018-06-20T16:48:26.458Z,6.37
2018-06-20T16:50:54.767Z,6.20
2018-06-20T16:53:23.038Z,6.03
2018-06-20T16:55:51.332Z,6.10
2018-06-20T16:58:19.609Z,6.10
2018-06-20T17:00:47.823Z,6.37
2018-06-20T17:03:16.107Z,6.13
2018-06-20T17:05:44.371Z,6.00
2018-06-20T17:08:12.586Z,6.40
2018-06-20T17:10:40.859Z,6.40
2018-06-20T17:13:14.546Z,6.10
2018-06-20T17:15:48.112Z,5.87
2018-06-20T17:18:21.872Z,6.40
2018-06-20T17:20:55.591Z,6.30
2018-06-20T17:24:31.131Z,6.90
2018-06-20T17:26:59.283Z,6.30
2018-06-20T17:29:27.580Z,6.10
2018-06-20T17:31:55.938Z,6.57
2018-06-20T17:34:24.214Z,6.83
2018-06-20T17:36:52.467Z,6.30
2018-06-20T17:39:20.727Z,6.40
2018-06-20T17:41:48.958Z,7.10
2018-06-20T17:44:17.207Z,6.20
2018-06-20T17:46:45.547Z,6.20
2018-06-20T17:49:13.777Z,6.70
2018-06-20T17:51:42.202Z,6.87
2018-06-20T17:54:11.304Z,7.17
2018-06-20T17:56:39.570Z,6.83
2018-06-20T17:59:07.886Z,6.60
2018-06-20T18:01:36.279Z,6.47
2018-06-20T18:04:04.571Z,7.63
2018-06-20T18:06:38.310Z,6.03
2018-06-20T18:09:12.733Z,5.97
2018-06-20T18:12:45.216Z,5.90
2018-06-20T18:15:18.959Z,6.40
2018-06-20T18:17:47.212Z,6.63
2018-06-20T18:20:15.509Z,6.67
2018-06-20T18:22:43.799Z,6.10
2018-06-20T18:25:12.163Z,5.63
2018-06-20T18:27:40.446Z,5.60
2018-06-20T18:30:08.751Z,6.70
2018-06-20T18:32:37.019Z,6.70
2018-06-20T18:35:05.331Z,6.10
2018-06-20T18:37:33.684Z,5.47
2018-06-20T18:40:06.615Z,6.70
2018-06-20T18:42:35.165Z,6.30
2018-06-20T18:45:03.420Z,6.00
2018-06-20T18:47:37.034Z,6.23
2018-06-20T18:50:05.283Z,6.70
2018-06-20T18:52:33.503Z,6.40
2018-06-20T18:55:01.785Z,6.83
2018-06-20T18:57:35.328Z,6.67
2018-06-20T19:00:08.925Z,7.03
2018-06-20T19:02:42.544Z,6.70
2018-06-20T19:05:16.090Z,7.00
2018-06-20T19:07:49.698Z,7.47
2018-06-20T19:10:17.947Z,7.10
2018-06-20T19:12:46.215Z,7.23
2018-06-20T19:15:14.492Z,7.93
2018-06-20T19:17:42.814Z,7.50
2018-06-20T19:20:11.094Z,7.63
2018-06-20T19:22:39.359Z,7.87
2018-06-20T19:25:07.715Z,6.97
2018-06-20T19:27:35.943Z,7.33
2018-06-20T19:30:04.428Z,8.10
2018-06-20T19:32:32.907Z,7.93
2018-06-20T19:35:01.133Z,7.80
2018-06-20T19:37:29.398Z,7.47
2018-06-20T19:39:57.642Z,12.10
2018-06-20T19:42:26.278Z,34.97
2018-06-20T19:44:54.678Z,8.13
2018-06-20T19:47:22.922Z,9.20
2018-06-20T19:49:51.191Z,8.00
2018-06-20T19:52:19.459Z,7.80
2018-06-20T19:54:47.767Z,7.60
2018-06-20T19:57:16.088Z,9.40
2018-06-20T19:59:44.330Z,8.93
2018-06-20T20:02:12.590Z,7.77
2018-06-20T20:04:41.904Z,8.30
2018-06-20T20:07:10.121Z,8.00
2018-06-20T20:09:38.311Z,7.77
2018-06-20T20:12:06.587Z,8.20
2018-06-20T20:14:34.857Z,7.87
2018-06-20T20:17:03.074Z,7.90
2018-06-20T20:19:31.347Z,8.70
2018-06-20T20:21:59.631Z,8.60
2018-06-20T20:24:27.989Z,8.00
2018-06-20T20:26:56.216Z,8.30
2018-06-20T20:29:24.503Z,7.77
2018-06-20T20:31:52.786Z,8.70
2018-06-20T20:34:21.093Z,7.80
2018-06-20T20:36:49.371Z,9.40
2018-06-20T20:39:17.659Z,10.00
2018-06-20T20:41:45.954Z,8.83
2018-06-20T20:44:14.235Z,7.67
2018-06-20T20:46:42.642Z,8.67
2018-06-20T20:49:10.926Z,9.50
2018-06-20T20:51:39.218Z,9.07
2018-06-20T20:54:07.498Z,8.57
2018-06-20T20:56:35.766Z,8.47
2018-06-20T20:59:03.994Z,8.77
2018-06-20T21:01:32.242Z,8.47
2018-06-20T21:04:00.570Z,9.07
2018-06-20T21:06:28.864Z,9.13
2018-06-20T21:08:57.140Z,9.30
2018-06-20T21:11:27.376Z,9.43
2018-06-20T21:13:55.667Z,9.10
2018-06-20T21:16:23.941Z,9.67
2018-06-20T21:18:52.255Z,9.87
2018-06-20T21:21:20.546Z,9.93
2018-06-20T21:23:48.795Z,9.40
2018-06-20T21:26:17.155Z,9.50
2018-06-20T21:28:45.395Z,9.53
2018-06-20T21:31:13.669Z,10.10
2018-06-20T21:33:42.034Z,9.87
2018-06-20T21:36:10.264Z,9.70
2018-06-20T21:38:38.538Z,9.67
2018-06-20T21:41:06.883Z,9.30
2018-06-20T21:43:35.122Z,9.23
2018-06-20T21:46:03.395Z,10.03
2018-06-20T21:48:31.742Z,9.57
2018-06-20T21:50:59.986Z,10.00
2018-06-20T21:53:28.282Z,9.90
2018-06-20T21:55:56.591Z,10.20
2018-06-20T21:58:24.868Z,9.30
2018-06-20T22:00:53.142Z,10.40
2018-06-20T22:03:21.443Z,10.07
2018-06-20T22:05:49.728Z,9.40
2018-06-20T22:08:18.016Z,10.40
2018-06-20T22:10:46.330Z,10.10
2018-06-20T22:13:14.645Z,10.27
2018-06-20T22:15:42.854Z,9.63
2018-06-20T22:18:11.062Z,9.93
2018-06-20T22:20:39.383Z,9.80
2018-06-20T22:23:07.594Z,10.87
2018-06-20T22:25:35.857Z,10.90
2018-06-20T22:28:04.132Z,9.70
2018-06-20T22:30:32.399Z,9.40
2018-06-20T22:33:00.682Z,10.23
2018-06-20T22:35:28.970Z,9.10
2018-06-20T22:37:57.370Z,11.23
2018-06-20T22:40:25.658Z,9.77
2018-06-20T22:42:53.931Z,10.60
2018-06-20T22:45:22.246Z,10.90
2018-06-20T22:47:50.519Z,11.10
2018-06-20T22:50:18.814Z,10.13
2018-06-20T22:52:47.147Z,9.90
2018-06-20T22:55:15.395Z,10.53
2018-06-20T22:57:43.732Z,10.30
2018-06-20T23:00:12.312Z,9.90
2018-06-20T23:02:40.583Z,10.57
2018-06-20T23:05:08.994Z,11.60
2018-06-20T23:07:37.238Z,11.20
2018-06-20T23:10:05.539Z,10.50
2018-06-20T23:12:33.818Z,10.87
2018-06-20T23:15:02.114Z,11.37
2018-06-20T23:17:30.408Z,10.80
2018-06-20T23:19:58.704Z,10.20
2018-06-20T23:22:26.887Z,10.60
2018-06-20T23:24:55.154Z,11.73
2018-06-20T23:27:23.479Z,10.80
2018-06-20T23:29:51.748Z,10.77
2018-06-20T23:32:20.047Z,10.27
2018-06-20T23:34:48.303Z,9.37
2018-06-20T23:37:16.526Z,9.67
2018-06-20T23:39:44.791Z,9.77
2018-06-20T23:42:13.088Z,9.17
2018-06-20T23:44:41.379Z,8.87
2018-06-20T23:47:09.666Z,9.00
2018-06-20T23:49:37.958Z,8.20
2018-06-20T23:52:06.286Z,9.20
2018-06-20T23:54:34.566Z,9.10
2018-06-20T23:57:02.848Z,9.40
2018-06-20T23:59:31.110Z,9.30
